createdAt,value
2018-09-14T00:00:49.693Z,73.66
2018-09-14T00:03:17.708Z,73.39
2018-09-14T00:05:45.704Z,73.76
2018-09-14T00:08:13.716Z,73.58
2018-09-14T00:10:41.704Z,73.73
2018-09-14T00:13:09.721Z,73.61
2018-09-14T00:15:37.760Z,72.96
2018-09-14T00:18:06.073Z,73.35
2018-09-14T00:20:34.051Z,73.85
2018-09-14T00:23:02.188Z,72.76
2018-09-14T00:25:30.177Z,72.99
2018-09-14T00:27:58.197Z,73.13
2018-09-14T00:30:26.213Z,73.47
2018-09-14T00:32:54.213Z,73.07
2018-09-14T00:35:22.229Z,73.44
2018-09-14T00:37:50.229Z,72.87
2018-09-14T00:40:18.220Z,73.47
2018-09-14T00:42:46.208Z,72.35
2018-09-14T00:45:14.204Z,73.15
2018-09-14T00:47:42.218Z,73.51
2018-09-14T00:50:10.242Z,73.42
2018-09-14T00:52:38.247Z,74.36
2018-09-14T00:55:06.246Z,74.12
2018-09-14T00:57:34.297Z,73.08
2018-09-14T01:00:02.354Z,73.59
2018-09-14T01:02:30.440Z,74.02
2018-09-14T01:04:58.444Z,73.26
2018-09-14T01:07:26.434Z,74.23
2018-09-14T01:09:54.465Z,73.47
2018-09-14T01:12:22.468Z,74.12
2018-09-14T01:14:50.462Z,73.58
2018-09-14T01:17:18.584Z,74.49
2018-09-14T01:19:46.596Z,74.19
2018-09-14T01:22:14.601Z,73.66
2018-09-14T01:24:42.620Z,73.89
2018-09-14T01:27:13.646Z,73.45
2018-09-14T01:29:41.662Z,73.44
2018-09-14T01:32:09.680Z,73.51
2018-09-14T01:34:37.713Z,73.22
2018-09-14T01:37:05.701Z,73.03
2018-09-14T01:39:33.698Z,72.93
2018-09-14T01:42:01.703Z,73.28
2018-09-14T01:44:29.781Z,74.13
2018-09-14T01:46:57.769Z,74.44
2018-09-14T01:49:25.776Z,74.00
2018-09-14T01:51:53.776Z,73.97
2018-09-14T01:54:21.788Z,74.76
2018-09-14T01:56:49.770Z,75.11
2018-09-14T01:59:17.760Z,74.88
2018-09-14T02:01:45.808Z,75.07
2018-09-14T02:04:13.798Z,74.81
2018-09-14T02:06:41.823Z,74.88
2018-09-14T02:09:10.761Z,75.21
2018-09-14T02:11:38.818Z,75.76
2018-09-14T02:14:07.000Z,75.34
2018-09-14T02:16:35.399Z,75.38
2018-09-14T02:19:03.548Z,75.38
2018-09-14T02:21:31.724Z,76.69
2018-09-14T02:23:59.749Z,76.45
2018-09-14T02:26:27.856Z,75.93
2018-09-14T02:28:55.933Z,76.09
2018-09-14T02:31:23.922Z,76.07
2018-09-14T02:33:51.972Z,76.43
2018-09-14T02:36:19.972Z,76.48
2018-09-14T02:38:48.036Z,77.02
2018-09-14T02:41:16.038Z,77.05
2018-09-14T02:43:44.031Z,77.12
2018-09-14T02:46:12.073Z,77.68
2018-09-14T02:48:40.129Z,77.99
2018-09-14T02:51:08.173Z,78.71
2018-09-14T02:53:36.189Z,78.96
2018-09-14T02:56:04.279Z,79.13
2018-09-14T02:58:32.277Z,78.41
2018-09-14T03:01:00.280Z,77.95
2018-09-14T03:03:28.283Z,78.60
2018-09-14T03:05:56.334Z,78.93
2018-09-14T03:08:24.397Z,78.76
2018-09-14T03:10:52.416Z,78.21
2018-09-14T03:13:20.460Z,77.99
2018-09-14T03:15:48.901Z,78.33
2018-09-14T03:18:16.909Z,77.97
2018-09-14T03:20:44.958Z,77.02
2018-09-14T03:23:12.982Z,77.58
2018-09-14T03:25:41.122Z,77.67
2018-09-14T03:28:09.121Z,77.46
2018-09-14T03:30:37.237Z,78.08
2018-09-14T03:33:05.256Z,77.55
2018-09-14T03:35:33.281Z,77.61
2018-09-14T03:38:01.307Z,77.48
2018-09-14T03:40:29.327Z,77.00
2018-09-14T03:42:57.341Z,77.06
2018-09-14T03:45:25.355Z,77.13
2018-09-14T03:47:53.386Z,76.68
2018-09-14T03:50:21.461Z,76.51
2018-09-14T03:52:49.494Z,77.42
2018-09-14T03:55:17.516Z,77.21
2018-09-14T03:57:45.565Z,77.68
2018-09-14T04:00:13.617Z,78.76
2018-09-14T04:02:41.643Z,78.29
2018-09-14T04:05:09.682Z,78.87
2018-09-14T04:07:37.755Z,78.81
2018-09-14T04:10:05.933Z,79.12
2018-09-14T04:12:33.941Z,79.46
2018-09-14T04:15:01.940Z,79.50
2018-09-14T04:17:29.950Z,80.31
2018-09-14T04:19:57.954Z,80.41
2018-09-14T04:22:26.100Z,80.87
2018-09-14T04:24:54.165Z,80.52
2018-09-14T04:27:22.170Z,80.50
2018-09-14T04:29:50.192Z,80.04
2018-09-14T04:32:18.195Z,80.76
2018-09-14T04:34:46.189Z,80.26
2018-09-14T04:37:14.389Z,79.99
2018-09-14T04:39:42.437Z,78.57
2018-09-14T04:42:10.468Z,79.24
2018-09-14T04:44:38.520Z,79.64
2018-09-14T04:47:06.608Z,78.91
2018-09-14T04:49:34.699Z,79.20
2018-09-14T04:52:02.727Z,78.73
2018-09-14T04:54:30.723Z,78.87
2018-09-14T04:56:58.739Z,77.66
2018-09-14T04:59:26.828Z,78.87
2018-09-14T05:01:54.852Z,78.27
2018-09-14T05:04:23.868Z,77.50
2018-09-14T05:06:52.353Z,77.91
2018-09-14T05:09:20.364Z,78.68
2018-09-14T05:11:48.465Z,79.88
2018-09-14T05:14:16.557Z,79.77
2018-09-14T05:16:44.519Z,80.30
2018-09-14T05:19:12.540Z,80.73
2018-09-14T05:21:40.593Z,80.83
2018-09-14T05:24:08.872Z,80.53
2018-09-14T05:26:36.967Z,80.42
2018-09-14T05:29:05.266Z,80.65
2018-09-14T05:31:33.373Z,80.51
2018-09-14T05:34:01.422Z,80.46
2018-09-14T05:36:29.417Z,80.42
2018-09-14T05:38:57.424Z,80.25
2018-09-14T05:41:25.449Z,81.42
2018-09-14T05:43:53.481Z,82.20
2018-09-14T05:46:21.544Z,82.20
2018-09-14T05:48:49.570Z,82.39
2018-09-14T05:51:17.576Z,83.09
2018-09-14T05:53:45.596Z,83.43
2018-09-14T05:56:13.602Z,83.77
2018-09-14T05:58:41.677Z,83.09
2018-09-14T06:01:09.685Z,82.51
2018-09-14T06:03:37.832Z,82.38
2018-09-14T06:06:05.852Z,81.36
2018-09-14T06:08:33.929Z,81.25
2018-09-14T06:11:01.992Z,81.23
2018-09-14T06:13:30.089Z,81.96
2018-09-14T06:15:58.140Z,80.72
2018-09-14T06:18:26.161Z,81.38
2018-09-14T06:20:54.249Z,80.46
2018-09-14T06:23:22.447Z,81.12
2018-09-14T06:25:50.482Z,80.19
2018-09-14T06:28:18.549Z,80.05
2018-09-14T06:30:46.549Z,79.39
2018-09-14T06:33:14.564Z,77.68
2018-09-14T06:35:42.634Z,77.89
2018-09-14T06:38:10.763Z,78.74
2018-09-14T06:40:38.670Z,80.00
2018-09-14T06:43:06.692Z,80.39
2018-09-14T06:45:34.688Z,80.81
2018-09-14T06:48:02.743Z,80.54
2018-09-14T06:50:30.725Z,79.56
2018-09-14T06:52:58.805Z,80.75
2018-09-14T06:55:26.798Z,78.11
2018-09-14T06:57:54.816Z,77.73
2018-09-14T07:00:22.957Z,77.75
2018-09-14T07:02:50.908Z,77.16
2018-09-14T07:05:18.944Z,77.02
2018-09-14T07:07:46.968Z,75.66
2018-09-14T07:10:15.028Z,75.62
2018-09-14T07:12:43.070Z,75.22
2018-09-14T07:15:11.097Z,72.85
2018-09-14T07:17:39.316Z,72.35
2018-09-14T07:20:07.308Z,72.26
2018-09-14T07:22:35.348Z,72.49
2018-09-14T07:25:04.281Z,73.08
2018-09-14T07:27:32.273Z,71.20
2018-09-14T07:30:00.345Z,72.61
2018-09-14T07:32:28.391Z,70.57
2018-09-14T07:34:56.404Z,67.83
2018-09-14T07:37:24.511Z,68.14
2018-09-14T07:39:52.509Z,66.53
2018-09-14T07:42:20.547Z,65.39
2018-09-14T07:44:48.537Z,66.44
2018-09-14T07:47:16.557Z,67.92
2018-09-14T07:49:44.612Z,68.50
2018-09-14T07:52:12.656Z,67.14
2018-09-14T07:54:40.668Z,65.67
2018-09-14T07:57:08.689Z,66.59
2018-09-14T07:59:36.776Z,64.84
2018-09-14T08:02:04.922Z,64.60
2018-09-14T08:04:32.949Z,60.71
2018-09-14T08:07:01.075Z,58.88
2018-09-14T08:09:29.192Z,54.93
2018-09-14T08:11:57.498Z,54.60
2018-09-14T08:14:25.433Z,49.76
2018-09-14T08:16:53.473Z,49.23
2018-09-14T08:19:21.540Z,47.90
2018-09-14T08:21:49.909Z,46.46
2018-09-14T08:24:17.833Z,42.27
2018-09-14T08:26:45.914Z,41.42
2018-09-14T08:29:13.903Z,40.65
2018-09-14T08:31:41.925Z,39.78
2018-09-14T08:34:09.972Z,40.28
2018-09-14T08:36:38.056Z,40.26
2018-09-14T08:39:08.693Z,40.05
2018-09-14T08:41:36.755Z,40.03
2018-09-14T08:44:04.813Z,37.26
2018-09-14T08:46:32.915Z,36.91
2018-09-14T08:49:00.965Z,34.40
2018-09-14T08:51:29.012Z,34.93
2018-09-14T08:53:57.076Z,35.15
2018-09-14T08:56:25.323Z,34.45
2018-09-14T08:58:53.357Z,34.96
2018-09-14T09:01:21.404Z,32.92
2018-09-14T09:03:49.779Z,32.79
2018-09-14T09:06:17.733Z,32.53
2018-09-14T09:08:45.884Z,33.52
2018-09-14T09:11:13.960Z,32.72
2018-09-14T09:13:42.038Z,33.26
2018-09-14T09:16:10.081Z,34.23
2018-09-14T09:18:38.129Z,34.39
2018-09-14T09:21:06.195Z,33.61
2018-09-14T09:23:34.353Z,35.65
2018-09-14T09:26:02.344Z,36.46
2018-09-14T09:28:30.556Z,35.86
2018-09-14T09:30:58.584Z,37.68
2018-09-14T09:33:26.732Z,37.08
2018-09-14T09:35:54.970Z,38.26
2018-09-14T09:38:23.006Z,38.34
2018-09-14T09:40:51.119Z,38.73
2018-09-14T09:43:19.149Z,40.51
2018-09-14T09:45:47.345Z,38.95
2018-09-14T09:48:15.342Z,42.05
2018-09-14T09:50:43.482Z,41.82
2018-09-14T09:53:11.455Z,43.06
2018-09-14T09:55:39.543Z,42.87
2018-09-14T09:58:08.065Z,43.06
2018-09-14T10:00:41.535Z,44.56
2018-09-14T10:03:15.108Z,45.08
2018-09-14T10:05:48.804Z,45.85
2018-09-14T10:08:16.812Z,47.90
2018-09-14T10:10:45.912Z,50.05
2018-09-14T10:13:13.969Z,48.99
2018-09-14T10:15:42.166Z,48.40
2018-09-14T10:18:10.208Z,48.48
2018-09-14T10:20:38.347Z,47.04
2018-09-14T10:23:06.466Z,47.03
2018-09-14T10:25:34.537Z,47.11
2018-09-14T10:28:02.695Z,48.89
2018-09-14T10:30:30.756Z,48.62
2018-09-14T10:32:58.761Z,48.91
2018-09-14T10:35:26.910Z,47.00
2018-09-14T10:37:55.268Z,47.85
2018-09-14T10:40:23.396Z,48.79
2018-09-14T10:42:51.439Z,45.95
2018-09-14T10:45:19.721Z,46.99
2018-09-14T10:47:47.988Z,48.75
2018-09-14T10:50:16.049Z,48.31
2018-09-14T10:52:44.160Z,47.51
2018-09-14T10:55:12.239Z,48.41
2018-09-14T10:57:40.224Z,48.63
2018-09-14T11:00:08.276Z,51.27
2018-09-14T11:02:36.288Z,50.96
2018-09-14T11:05:04.309Z,51.56
2018-09-14T11:07:32.482Z,51.61
2018-09-14T11:10:00.569Z,49.71
2018-09-14T11:12:28.622Z,50.11
2018-09-14T11:14:56.620Z,52.05
2018-09-14T11:17:24.641Z,50.87
2018-09-14T11:19:52.720Z,49.78
2018-09-14T11:22:20.750Z,51.70
2018-09-14T11:24:48.922Z,50.31
2018-09-14T11:27:16.829Z,50.35
2018-09-14T11:29:44.864Z,50.88
2018-09-14T11:32:12.936Z,52.33
2018-09-14T11:34:40.922Z,50.44
2018-09-14T11:37:08.981Z,49.24
2018-09-14T11:39:37.020Z,48.13
2018-09-14T11:42:05.115Z,47.63
2018-09-14T11:44:33.180Z,47.73
2018-09-14T11:47:01.307Z,46.36
2018-09-14T11:49:29.312Z,47.76
2018-09-14T11:51:57.397Z,44.50
2018-09-14T11:54:25.564Z,43.33
2018-09-14T11:56:53.564Z,45.39
2018-09-14T11:59:21.678Z,45.89
2018-09-14T12:01:49.766Z,44.50
2018-09-14T12:04:17.867Z,43.23
2018-09-14T12:06:45.893Z,44.50
2018-09-14T12:09:13.919Z,44.22
2018-09-14T12:11:42.167Z,42.38
2018-09-14T12:14:10.749Z,41.71
2018-09-14T12:16:38.816Z,41.50
2018-09-14T12:19:06.986Z,40.88
2018-09-14T12:21:34.993Z,39.62
2018-09-14T12:24:03.033Z,38.67
2018-09-14T12:26:31.069Z,38.46
2018-09-14T12:28:59.126Z,37.63
2018-09-14T12:31:27.192Z,39.26
2018-09-14T12:33:55.229Z,40.03
2018-09-14T12:36:23.318Z,40.99
2018-09-14T12:38:51.412Z,37.75
2018-09-14T12:41:19.461Z,39.13
2018-09-14T12:43:47.597Z,38.08
2018-09-14T12:46:15.588Z,38.49
2018-09-14T12:48:44.660Z,39.38
2018-09-14T12:51:12.645Z,38.65
2018-09-14T12:53:40.674Z,37.85
2018-09-14T12:56:08.718Z,39.80
2018-09-14T12:58:36.772Z,38.59
2018-09-14T13:01:04.772Z,37.93
2018-09-14T13:03:32.830Z,38.66
2018-09-14T13:06:00.839Z,37.35
2018-09-14T13:08:28.909Z,36.32
2018-09-14T13:10:56.965Z,37.46
2018-09-14T13:13:25.601Z,37.27
2018-09-14T13:15:53.946Z,35.38
2018-09-14T13:18:21.996Z,35.91
2018-09-14T13:20:50.169Z,35.77
2018-09-14T13:23:18.279Z,35.79
2018-09-14T13:25:46.328Z,37.18
2018-09-14T13:28:14.339Z,38.26
2018-09-14T13:30:42.456Z,38.19
2018-09-14T13:33:10.473Z,40.08
2018-09-14T13:35:38.519Z,37.24
2018-09-14T13:38:06.748Z,35.46
2018-09-14T13:40:34.782Z,36.10
2018-09-14T13:43:02.819Z,37.25
2018-09-14T13:45:30.882Z,35.96
2018-09-14T13:47:59.071Z,36.81
2018-09-14T13:50:27.113Z,35.29
2018-09-14T13:52:55.206Z,37.00
2018-09-14T13:55:23.175Z,35.50
2018-09-14T13:57:51.261Z,34.94
2018-09-14T14:00:19.307Z,35.81
2018-09-14T14:02:47.381Z,37.68
2018-09-14T14:05:15.419Z,36.78
2018-09-14T14:07:43.460Z,38.05
2018-09-14T14:10:11.567Z,37.67
2018-09-14T14:12:39.695Z,37.57
2018-09-14T14:15:07.707Z,37.54
2018-09-14T14:17:37.062Z,38.49
2018-09-14T14:20:04.916Z,37.20
2018-09-14T14:22:33.033Z,38.12
2018-09-14T14:25:01.080Z,37.29
2018-09-14T14:27:29.408Z,36.33
2018-09-14T14:29:57.445Z,36.67
2018-09-14T14:32:25.629Z,36.53
2018-09-14T14:34:53.761Z,36.42
2018-09-14T14:37:21.847Z,36.48
2018-09-14T14:39:49.866Z,37.91
2018-09-14T14:42:17.929Z,37.69
2018-09-14T14:44:46.045Z,38.32
2018-09-14T14:47:14.240Z,36.27
2018-09-14T14:49:42.440Z,37.05
2018-09-14T14:52:10.556Z,34.68
2018-09-14T14:54:38.751Z,37.13
2018-09-14T14:57:06.835Z,36.65
2018-09-14T14:59:35.061Z,35.46
2018-09-14T15:02:03.205Z,36.46
2018-09-14T15:04:31.404Z,36.29
2018-09-14T15:06:59.449Z,37.92
2018-09-14T15:09:27.484Z,36.11
2018-09-14T15:11:55.511Z,35.38
2018-09-14T15:14:23.632Z,35.56
2018-09-14T15:16:51.752Z,34.49
2018-09-14T15:19:19.920Z,35.87
2018-09-14T15:21:47.965Z,37.61
2018-09-14T15:24:15.968Z,37.17
2018-09-14T15:26:44.013Z,35.91
2018-09-14T15:29:12.092Z,37.72
2018-09-14T15:31:40.109Z,36.96
2018-09-14T15:34:08.184Z,37.53
2018-09-14T15:36:36.235Z,37.60
2018-09-14T15:39:09.705Z,36.60
2018-09-14T15:41:37.773Z,36.95
2018-09-14T15:44:05.860Z,38.34
2018-09-14T15:46:33.961Z,35.95
2018-09-14T15:49:02.016Z,35.38
2018-09-14T15:51:30.241Z,38.80
2018-09-14T15:53:58.288Z,37.47
2018-09-14T15:56:26.626Z,37.90
2018-09-14T15:58:54.756Z,37.67
2018-09-14T16:01:22.898Z,37.92
2018-09-14T16:03:51.034Z,37.66
2018-09-14T16:06:19.135Z,37.56
2018-09-14T16:08:47.209Z,38.85
2018-09-14T16:11:16.341Z,39.71
2018-09-14T16:13:45.306Z,37.47
2018-09-14T16:16:13.378Z,38.91
2018-09-14T16:18:41.417Z,38.46
2018-09-14T16:21:09.437Z,37.94
2018-09-14T16:23:37.436Z,38.60
2018-09-14T16:26:05.462Z,38.37
2018-09-14T16:28:33.523Z,39.58
2018-09-14T16:31:01.609Z,39.57
2018-09-14T16:33:29.632Z,41.22
2018-09-14T16:35:57.711Z,41.14
2018-09-14T16:38:25.845Z,41.10
2018-09-14T16:40:53.877Z,40.76
2018-09-14T16:43:21.887Z,40.76
2018-09-14T16:45:49.946Z,40.83
2018-09-14T16:48:17.946Z,42.02
2018-09-14T16:50:45.974Z,40.75
2018-09-14T16:53:14.024Z,41.63
2018-09-14T16:55:42.044Z,40.95
2018-09-14T16:58:10.121Z,42.05
2018-09-14T17:00:38.130Z,42.01
2018-09-14T17:03:06.249Z,41.16
2018-09-14T17:05:34.240Z,41.76
2018-09-14T17:08:02.267Z,42.93
2018-09-14T17:10:30.282Z,41.46
2018-09-14T17:12:58.321Z,42.50
2018-09-14T17:15:26.339Z,41.48
2018-09-14T17:17:54.373Z,41.93
2018-09-14T17:20:22.445Z,42.85
2018-09-14T17:22:50.487Z,43.46
2018-09-14T17:25:18.516Z,43.27
2018-09-14T17:27:46.561Z,44.62
2018-09-14T17:30:14.578Z,44.26
2018-09-14T17:32:42.627Z,44.38
2018-09-14T17:35:10.668Z,46.23
2018-09-14T17:37:38.730Z,45.61
2018-09-14T17:40:06.745Z,44.48
2018-09-14T17:42:34.751Z,44.92
2018-09-14T17:45:02.790Z,45.94
2018-09-14T17:47:31.961Z,45.35
2018-09-14T17:50:00.066Z,45.49
2018-09-14T17:52:28.201Z,44.86
2018-09-14T17:54:56.278Z,46.29
2018-09-14T17:57:24.417Z,46.71
2018-09-14T17:59:52.566Z,46.59
2018-09-14T18:02:20.643Z,47.35
2018-09-14T18:04:48.879Z,47.41
2018-09-14T18:07:16.887Z,45.83
2018-09-14T18:09:45.297Z,46.86
2018-09-14T18:12:13.324Z,47.04
2018-09-14T18:14:41.444Z,46.43
2018-09-14T18:17:09.501Z,47.21
2018-09-14T18:19:37.525Z,47.99
2018-09-14T18:22:05.590Z,48.64
2018-09-14T18:24:34.020Z,48.18
2018-09-14T18:27:02.039Z,47.61
2018-09-14T18:29:30.073Z,47.85
2018-09-14T18:31:58.081Z,48.83
2018-09-14T18:34:26.119Z,48.65
2018-09-14T18:36:54.427Z,47.73
2018-09-14T18:39:22.616Z,48.28
2018-09-14T18:41:50.933Z,48.32
2018-09-14T18:44:19.178Z,48.05
2018-09-14T18:46:47.434Z,49.06
2018-09-14T18:49:15.500Z,49.11
2018-09-14T18:51:43.569Z,48.86
2018-09-14T18:54:11.643Z,49.36
2018-09-14T18:56:39.701Z,48.83
2018-09-14T18:59:07.720Z,49.14
2018-09-14T19:01:35.749Z,49.26
2018-09-14T19:04:03.847Z,50.17
2018-09-14T19:06:31.960Z,49.67
2018-09-14T19:09:00.044Z,49.46
2018-09-14T19:11:28.121Z,49.70
2018-09-14T19:13:56.189Z,49.38
2018-09-14T19:16:24.247Z,49.12
2018-09-14T19:18:52.528Z,50.49
2018-09-14T19:21:20.589Z,50.48
2018-09-14T19:23:48.613Z,50.23
2018-09-14T19:26:16.685Z,51.42
2018-09-14T19:28:44.732Z,49.79
2018-09-14T19:31:12.762Z,49.66
2018-09-14T19:33:40.754Z,50.45
2018-09-14T19:36:08.808Z,49.88
2018-09-14T19:38:36.848Z,49.90
2018-09-14T19:41:04.853Z,50.70
2018-09-14T19:43:32.909Z,50.06
2018-09-14T19:46:00.928Z,50.83
2018-09-14T19:48:28.973Z,50.73
2018-09-14T19:50:57.063Z,50.00
2018-09-14T19:53:25.070Z,50.22
2018-09-14T19:55:53.080Z,50.78
2018-09-14T19:58:21.166Z,50.92
2018-09-14T20:00:49.792Z,50.87
2018-09-14T20:03:17.889Z,50.54
2018-09-14T20:05:45.937Z,50.32
2018-09-14T20:08:13.993Z,50.44
2018-09-14T20:10:42.169Z,51.56
2018-09-14T20:13:10.197Z,51.03
2018-09-14T20:15:38.300Z,51.58
2018-09-14T20:18:06.444Z,51.38
2018-09-14T20:20:34.554Z,51.69
2018-09-14T20:23:02.578Z,51.62
2018-09-14T20:25:30.643Z,51.67
2018-09-14T20:27:58.660Z,51.36
2018-09-14T20:30:26.716Z,51.97
2018-09-14T20:32:54.743Z,51.22
2018-09-14T20:35:22.914Z,52.32
2018-09-14T20:37:57.913Z,52.27
2018-09-14T20:40:25.970Z,52.49
2018-09-14T20:42:54.084Z,52.31
2018-09-14T20:45:22.056Z,51.96
2018-09-14T20:47:50.057Z,52.71
2018-09-14T20:50:18.237Z,52.24
2018-09-14T20:52:46.234Z,52.75
2018-09-14T20:55:14.276Z,52.37
2018-09-14T20:57:42.329Z,53.51
2018-09-14T21:00:10.421Z,53.34
2018-09-14T21:02:38.505Z,53.52
2018-09-14T21:05:06.612Z,54.43
2018-09-14T21:07:34.647Z,54.06
2018-09-14T21:10:02.752Z,53.98
2018-09-14T21:12:30.801Z,53.44
2018-09-14T21:14:58.880Z,54.03
2018-09-14T21:17:26.969Z,54.38
2018-09-14T21:19:54.988Z,54.13
2018-09-14T21:22:23.192Z,54.21
2018-09-14T21:24:51.226Z,54.98
2018-09-14T21:27:19.244Z,54.85
2018-09-14T21:29:47.277Z,56.14
2018-09-14T21:32:15.338Z,56.04
2018-09-14T21:34:43.448Z,56.55
2018-09-14T21:37:11.511Z,56.73
2018-09-14T21:39:39.510Z,56.90
2018-09-14T21:42:07.525Z,57.41
2018-09-14T21:44:35.580Z,56.24
2018-09-14T21:47:03.607Z,57.01
2018-09-14T21:49:31.699Z,56.62
2018-09-14T21:51:59.965Z,56.79
2018-09-14T21:54:27.979Z,58.16
2018-09-14T21:56:55.988Z,58.26
2018-09-14T21:59:24.061Z,58.19
2018-09-14T22:01:52.112Z,58.68
2018-09-14T22:04:20.176Z,59.56
2018-09-14T22:06:48.275Z,59.85
2018-09-14T22:09:16.316Z,59.66
2018-09-14T22:11:44.352Z,59.24
2018-09-14T22:14:12.353Z,59.55
2018-09-14T22:16:40.376Z,58.32
2018-09-14T22:19:08.433Z,59.16
2018-09-14T22:21:37.721Z,60.14
2018-09-14T22:24:05.715Z,59.66
2018-09-14T22:26:33.713Z,60.07
2018-09-14T22:29:01.851Z,59.07
2018-09-14T22:31:29.865Z,58.84
2018-09-14T22:33:57.889Z,58.98
2018-09-14T22:36:25.912Z,58.97
2018-09-14T22:38:53.992Z,59.57
2018-09-14T22:41:22.130Z,59.31
2018-09-14T22:43:50.162Z,59.81
2018-09-14T22:46:18.181Z,59.70
2018-09-14T22:48:46.352Z,58.67
2018-09-14T22:51:14.420Z,60.35
2018-09-14T22:53:42.476Z,59.86
2018-09-14T22:56:10.502Z,59.22
2018-09-14T22:58:38.710Z,59.26
2018-09-14T23:01:13.064Z,59.39
2018-09-14T23:03:41.158Z,60.61
2018-09-14T23:06:09.187Z,60.20
2018-09-14T23:08:37.253Z,60.69
2018-09-14T23:11:05.328Z,60.00
2018-09-14T23:13:33.442Z,60.92
2018-09-14T23:16:01.864Z,61.18
2018-09-14T23:18:30.853Z,60.33
2018-09-14T23:20:59.376Z,59.88
2018-09-14T23:23:27.560Z,59.66
2018-09-14T23:25:58.508Z,60.29
2018-09-14T23:28:26.650Z,59.46
2018-09-14T23:30:54.640Z,60.26
2018-09-14T23:33:22.628Z,60.40
2018-09-14T23:35:50.753Z,59.83
2018-09-14T23:38:18.761Z,60.94
2018-09-14T23:40:46.848Z,59.81
2018-09-14T23:43:14.852Z,59.28
2018-09-14T23:45:42.880Z,60.36
2018-09-14T23:48:11.000Z,60.48
2018-09-14T23:50:39.037Z,60.33
2018-09-14T23:53:07.077Z,60.35
2018-09-14T23:55:38.859Z,60.13
2018-09-14T23:58:06.840Z,60.87
